createdAt,value
2022-10-12T00:00:13.894Z,5.53
2022-10-12T00:02:41.113Z,7.03
2022-10-12T00:05:07.648Z,6.30
2022-10-12T00:07:34.213Z,5.73
2022-10-12T00:10:00.719Z,14.63
2022-10-12T00:12:27.355Z,6.57
2022-10-12T00:14:53.862Z,6.83
2022-10-12T00:17:20.427Z,8.40
2022-10-12T00:19:46.930Z,4.77
2022-10-12T00:22:13.539Z,9.50
2022-10-12T00:24:42.835Z,9.23
2022-10-12T00:27:09.591Z,19.83
2022-10-12T00:29:36.097Z,8.43
2022-10-12T00:32:02.609Z,6.00
2022-10-12T00:34:29.098Z,5.43
2022-10-12T00:36:55.633Z,9.70
2022-10-12T00:39:22.140Z,5.40
2022-10-12T00:41:48.745Z,8.40
2022-10-12T00:44:15.234Z,13.50
2022-10-12T00:46:41.734Z,7.10
2022-10-12T00:49:08.219Z,6.83
2022-10-12T00:51:34.755Z,9.10
2022-10-12T00:54:01.289Z,5.57
2022-10-12T00:56:27.839Z,5.40
2022-10-12T00:58:54.857Z,6.77
2022-10-12T01:01:21.417Z,9.60
2022-10-12T01:03:47.976Z,10.40
2022-10-12T01:06:14.563Z,7.27
2022-10-12T01:08:41.075Z,6.83
2022-10-12T01:11:07.634Z,6.67
2022-10-12T01:13:34.165Z,7.50
2022-10-12T01:16:00.784Z,7.00
2022-10-12T01:18:27.378Z,4.37
2022-10-12T01:20:53.896Z,6.70
2022-10-12T01:23:20.416Z,8.47
2022-10-12T01:25:47.076Z,4.97
2022-10-12T01:28:13.652Z,14.07
2022-10-12T01:30:41.061Z,11.10
2022-10-12T01:33:07.582Z,8.33
2022-10-12T01:35:34.096Z,6.50
2022-10-12T01:38:00.632Z,10.33
2022-10-12T01:40:27.143Z,13.43
2022-10-12T01:42:53.672Z,7.63
2022-10-12T01:45:20.557Z,11.20
2022-10-12T01:47:48.557Z,17.20
2022-10-12T01:50:15.242Z,12.37
2022-10-12T01:52:41.789Z,11.63
2022-10-12T01:55:08.406Z,10.20
2022-10-12T01:57:35.128Z,5.57
2022-10-12T02:00:02.059Z,3.13
2022-10-12T02:02:29.703Z,3.90
2022-10-12T02:04:56.295Z,8.53
2022-10-12T02:07:23.047Z,13.07
2022-10-12T02:09:49.539Z,2.93
2022-10-12T02:12:16.048Z,19.03
2022-10-12T02:14:42.530Z,6.70
2022-10-12T02:17:09.122Z,12.13
2022-10-12T02:19:35.676Z,10.20
2022-10-12T02:22:02.251Z,13.67
2022-10-12T02:24:28.881Z,8.00
2022-10-12T02:26:55.381Z,14.83
2022-10-12T02:29:21.895Z,13.47
2022-10-12T02:31:48.440Z,12.83
2022-10-12T02:34:14.956Z,10.10
2022-10-12T02:36:41.472Z,9.00
2022-10-12T02:39:07.951Z,9.13
2022-10-12T02:41:34.565Z,9.50
2022-10-12T02:44:01.163Z,11.30
2022-10-12T02:46:27.727Z,10.30
2022-10-12T02:48:54.261Z,7.87
2022-10-12T02:51:21.278Z,8.53
2022-10-12T02:53:47.804Z,4.60
2022-10-12T02:56:14.380Z,6.80
2022-10-12T02:58:40.894Z,4.10
2022-10-12T03:01:07.488Z,3.50
2022-10-12T03:03:34.035Z,12.23
2022-10-12T03:06:00.535Z,7.53
2022-10-12T03:08:27.143Z,4.53
2022-10-12T03:10:53.685Z,5.67
2022-10-12T03:13:20.229Z,8.40
2022-10-12T03:15:46.734Z,4.73
2022-10-12T03:18:13.251Z,8.80
2022-10-12T03:20:39.849Z,19.07
2022-10-12T03:23:06.442Z,14.03
2022-10-12T03:25:33.185Z,5.90
2022-10-12T03:28:00.119Z,11.67
2022-10-12T03:30:26.647Z,8.10
2022-10-12T03:32:53.170Z,4.80
2022-10-12T03:35:19.699Z,4.83
2022-10-12T03:37:46.212Z,5.50
2022-10-12T03:40:12.796Z,5.83
2022-10-12T03:42:39.318Z,13.07
2022-10-12T03:45:05.846Z,16.33
2022-10-12T03:47:32.368Z,8.77
2022-10-12T03:49:58.868Z,4.93
2022-10-12T03:52:25.368Z,7.77
2022-10-12T03:54:51.864Z,8.80
2022-10-12T03:57:18.399Z,12.67
2022-10-12T03:59:44.946Z,5.23
2022-10-12T04:02:16.564Z,8.40
2022-10-12T04:04:43.552Z,7.20
2022-10-12T04:07:10.166Z,11.40
2022-10-12T04:09:36.707Z,7.07
2022-10-12T04:12:03.197Z,15.83
2022-10-12T04:14:29.714Z,2.70
2022-10-12T04:16:56.265Z,3.83
2022-10-12T04:19:22.847Z,7.77
2022-10-12T04:21:49.392Z,7.70
2022-10-12T04:24:15.901Z,8.20
2022-10-12T04:26:42.470Z,6.50
2022-10-12T04:29:08.985Z,12.40
2022-10-12T04:31:35.553Z,6.37
2022-10-12T04:34:02.175Z,6.23
2022-10-12T04:36:28.712Z,11.90
2022-10-12T04:39:00.675Z,5.33
2022-10-12T04:41:27.648Z,2.10
2022-10-12T04:43:54.202Z,3.73
2022-10-12T04:46:20.751Z,7.83
2022-10-12T04:48:47.247Z,8.00
2022-10-12T04:51:13.799Z,14.73
2022-10-12T04:53:40.620Z,5.60
2022-10-12T04:56:07.273Z,6.37
2022-10-12T04:58:33.870Z,2.17
2022-10-12T05:01:00.354Z,6.70
2022-10-12T05:03:26.854Z,4.47
2022-10-12T05:05:53.413Z,8.97
2022-10-12T05:08:20.018Z,10.67
2022-10-12T05:10:47.078Z,4.70
2022-10-12T05:13:13.776Z,11.30
2022-10-12T05:15:40.373Z,5.30
2022-10-12T05:18:06.946Z,10.93
2022-10-12T05:20:33.460Z,3.40
2022-10-12T05:23:00.067Z,6.03
2022-10-12T05:25:29.199Z,7.97
2022-10-12T05:27:55.931Z,3.70
2022-10-12T05:30:22.485Z,5.90
2022-10-12T05:32:48.995Z,8.77
2022-10-12T05:35:15.614Z,2.27
2022-10-12T05:37:42.138Z,6.47
2022-10-12T05:40:08.649Z,11.10
2022-10-12T05:42:35.896Z,11.63
2022-10-12T05:45:02.702Z,3.40
2022-10-12T05:47:29.241Z,5.47
2022-10-12T05:49:55.726Z,10.93
2022-10-12T05:52:22.248Z,7.23
2022-10-12T05:54:49.397Z,10.70
2022-10-12T05:57:15.959Z,4.23
2022-10-12T05:59:42.574Z,5.47
2022-10-12T06:02:09.115Z,2.70
2022-10-12T06:04:35.711Z,12.60
2022-10-12T06:07:02.250Z,6.80
2022-10-12T06:09:28.841Z,8.73
2022-10-12T06:11:55.379Z,7.73
2022-10-12T06:14:21.892Z,5.13
2022-10-12T06:16:51.097Z,4.97
2022-10-12T06:19:20.958Z,10.33
2022-10-12T06:21:47.525Z,10.77
2022-10-12T06:24:14.042Z,5.37
2022-10-12T06:26:40.580Z,4.17
2022-10-12T06:29:07.448Z,11.80
2022-10-12T06:31:34.071Z,5.23
2022-10-12T06:34:00.556Z,11.53
2022-10-12T06:36:27.149Z,3.23
2022-10-12T06:38:53.721Z,11.63
2022-10-12T06:41:20.247Z,5.07
2022-10-12T06:43:46.736Z,8.73
2022-10-12T06:46:13.250Z,4.90
2022-10-12T06:48:39.766Z,3.43
2022-10-12T06:51:06.287Z,11.37
2022-10-12T06:53:34.853Z,7.97
2022-10-12T06:56:01.402Z,3.40
2022-10-12T06:58:27.945Z,3.10
2022-10-12T07:00:55.234Z,9.50
2022-10-12T07:03:21.812Z,8.93
2022-10-12T07:05:48.393Z,6.50
2022-10-12T07:08:14.885Z,8.37
2022-10-12T07:10:41.384Z,13.10
2022-10-12T07:13:07.969Z,6.40
2022-10-12T07:15:34.506Z,7.77
2022-10-12T07:18:01.021Z,6.97
2022-10-12T07:20:27.536Z,15.37
2022-10-12T07:22:54.126Z,5.77
2022-10-12T07:25:22.264Z,8.17
2022-10-12T07:27:48.899Z,7.90
2022-10-12T07:30:15.387Z,10.50
2022-10-12T07:32:42.641Z,4.83
2022-10-12T07:35:09.239Z,6.80
2022-10-12T07:37:35.830Z,9.87
2022-10-12T07:40:02.391Z,6.17
2022-10-12T07:42:29.156Z,6.77
2022-10-12T07:44:55.886Z,3.17
2022-10-12T07:47:22.519Z,11.40
2022-10-12T07:49:49.266Z,5.57
2022-10-12T07:52:15.862Z,9.50
2022-10-12T07:54:42.433Z,6.07
2022-10-12T07:57:08.956Z,9.00
2022-10-12T07:59:35.497Z,12.97
2022-10-12T08:02:02.083Z,4.80
2022-10-12T08:04:28.728Z,11.33
2022-10-12T08:06:55.510Z,4.13
2022-10-12T08:09:21.984Z,7.03
2022-10-12T08:11:48.494Z,5.90
2022-10-12T08:14:15.109Z,9.27
2022-10-12T08:16:41.660Z,6.40
2022-10-12T08:19:08.215Z,3.77
2022-10-12T08:21:34.751Z,4.93
2022-10-12T08:24:01.281Z,7.57
2022-10-12T08:26:29.129Z,8.00
2022-10-12T08:28:55.710Z,3.10
2022-10-12T08:31:22.354Z,4.10
2022-10-12T08:33:48.953Z,1.60
2022-10-12T08:36:15.482Z,3.10
2022-10-12T08:38:43.575Z,3.90
2022-10-12T08:41:10.084Z,3.73
2022-10-12T08:43:36.700Z,8.27
2022-10-12T08:46:03.196Z,5.30
2022-10-12T08:48:29.761Z,3.50
2022-10-12T08:53:24.320Z,5.30
2022-10-12T08:55:52.565Z,9.20
2022-10-12T08:58:20.606Z,6.80
2022-10-12T09:00:47.194Z,4.87
2022-10-12T09:03:13.790Z,3.30
2022-10-12T09:05:40.315Z,3.67
2022-10-12T09:08:06.888Z,9.10
2022-10-12T09:10:33.399Z,1.87
2022-10-12T09:12:59.949Z,16.63
2022-10-12T09:15:26.468Z,6.23
2022-10-12T09:17:53.205Z,8.27
2022-10-12T09:20:19.839Z,9.23
2022-10-12T09:22:46.412Z,8.70
2022-10-12T09:25:13.320Z,8.63
2022-10-12T09:27:44.955Z,4.07
2022-10-12T09:30:11.780Z,9.13
2022-10-12T09:32:38.299Z,12.73
2022-10-12T09:35:05.003Z,6.30
2022-10-12T09:37:31.547Z,3.07
2022-10-12T09:39:58.139Z,7.13
2022-10-12T09:42:24.781Z,10.97
2022-10-12T09:44:51.437Z,9.13
2022-10-12T09:47:18.037Z,12.73
2022-10-12T09:49:44.556Z,5.70
2022-10-12T09:52:11.118Z,8.63
2022-10-12T09:54:37.696Z,5.37
2022-10-12T09:57:04.241Z,11.33
2022-10-12T09:59:30.766Z,7.07
2022-10-12T10:01:57.424Z,5.90
2022-10-12T10:04:24.136Z,8.20
2022-10-12T10:06:50.873Z,4.57
2022-10-12T10:09:17.421Z,7.33
2022-10-12T10:11:43.936Z,6.37
2022-10-12T10:14:10.457Z,5.67
2022-10-12T10:16:36.977Z,18.37
2022-10-12T10:19:03.608Z,8.03
2022-10-12T10:21:30.215Z,7.30
2022-10-12T10:23:56.776Z,5.50
2022-10-12T10:26:24.015Z,12.33
2022-10-12T10:28:50.618Z,2.77
2022-10-12T10:31:17.283Z,5.80
2022-10-12T10:33:43.818Z,10.00
2022-10-12T10:36:10.322Z,19.77
2022-10-12T10:38:36.818Z,3.33
2022-10-12T10:41:03.348Z,4.20
2022-10-12T10:43:33.024Z,5.60
2022-10-12T10:45:59.574Z,25.57
2022-10-12T10:48:26.079Z,4.90
2022-10-12T10:50:52.717Z,6.40
2022-10-12T10:53:19.313Z,10.20
2022-10-12T10:55:45.911Z,3.50
2022-10-12T10:58:12.419Z,7.77
2022-10-12T11:00:40.449Z,5.00
2022-10-12T11:03:07.532Z,6.43
2022-10-12T11:05:34.335Z,7.10
2022-10-12T11:08:00.980Z,11.23
2022-10-12T11:10:28.179Z,5.20
2022-10-12T11:12:54.781Z,10.47
2022-10-12T11:15:21.388Z,12.63
2022-10-12T11:17:48.144Z,16.70
2022-10-12T11:20:19.486Z,6.20
2022-10-12T11:22:46.557Z,9.03
2022-10-12T11:25:13.205Z,10.57
2022-10-12T11:27:39.879Z,5.37
2022-10-12T11:30:10.057Z,6.33
2022-10-12T11:32:36.774Z,6.60
2022-10-12T11:35:03.593Z,12.10
2022-10-12T11:37:30.213Z,3.93
2022-10-12T11:39:56.895Z,4.33
2022-10-12T11:42:23.554Z,8.97
2022-10-12T11:44:50.159Z,7.17
2022-10-12T11:47:16.754Z,9.73
2022-10-12T11:49:43.348Z,8.23
2022-10-12T11:52:09.875Z,7.20
2022-10-12T11:54:36.602Z,9.40
2022-10-12T11:57:03.115Z,3.57
2022-10-12T11:59:29.781Z,4.20
2022-10-12T12:01:56.410Z,4.23
2022-10-12T12:04:41.096Z,2.27
2022-10-12T12:07:08.172Z,11.47
2022-10-12T12:09:34.783Z,5.07
2022-10-12T12:12:01.294Z,9.27
2022-10-12T12:14:27.858Z,6.73
2022-10-12T12:16:54.396Z,5.43
2022-10-12T12:19:21.037Z,4.80
2022-10-12T12:21:47.689Z,6.03
2022-10-12T12:24:14.342Z,7.90
2022-10-12T12:26:40.870Z,5.80
2022-10-12T12:29:07.421Z,12.00
2022-10-12T12:31:34.099Z,18.00
2022-10-12T12:34:00.773Z,8.37
2022-10-12T12:36:27.357Z,3.83
2022-10-12T12:38:53.975Z,10.93
2022-10-12T12:41:20.519Z,6.07
2022-10-12T12:43:47.075Z,10.57
2022-10-12T12:46:13.567Z,9.30
2022-10-12T12:48:40.213Z,9.87
2022-10-12T12:51:06.860Z,6.90
2022-10-12T12:53:33.453Z,11.70
2022-10-12T12:56:00.325Z,11.00
2022-10-12T12:58:26.943Z,8.77
2022-10-12T13:00:53.517Z,8.07
2022-10-12T13:03:20.096Z,4.60
2022-10-12T13:05:46.651Z,12.73
2022-10-12T13:08:13.175Z,10.93
2022-10-12T13:10:39.684Z,11.20
2022-10-12T13:13:06.225Z,6.03
2022-10-12T13:15:32.836Z,6.40
2022-10-12T13:17:59.564Z,14.83
2022-10-12T13:20:26.326Z,8.63
2022-10-12T13:22:53.085Z,11.53
2022-10-12T13:25:19.840Z,9.90
2022-10-12T13:27:46.508Z,9.40
2022-10-12T13:30:13.267Z,6.37
2022-10-12T13:32:39.910Z,11.97
2022-10-12T13:35:06.512Z,8.73
2022-10-12T13:37:33.387Z,8.40
2022-10-12T13:40:00.352Z,4.23
2022-10-12T13:42:26.925Z,6.43
2022-10-12T13:44:53.522Z,4.67
2022-10-12T13:47:19.999Z,10.67
2022-10-12T13:49:46.629Z,6.80
2022-10-12T13:52:13.197Z,5.03
2022-10-12T13:54:39.709Z,4.53
2022-10-12T13:57:06.279Z,8.80
2022-10-12T13:59:32.812Z,7.20
2022-10-12T14:02:06.208Z,7.50
2022-10-12T14:04:33.847Z,6.67
2022-10-12T14:07:01.037Z,3.80
2022-10-12T14:09:28.001Z,6.53
2022-10-12T14:11:54.544Z,4.47
2022-10-12T14:14:21.021Z,5.83
2022-10-12T14:16:47.574Z,7.70
2022-10-12T14:19:14.056Z,5.67
2022-10-12T14:21:40.595Z,6.63
2022-10-12T14:24:07.096Z,7.67
2022-10-12T14:26:33.597Z,14.20
2022-10-12T14:29:00.169Z,8.40
2022-10-12T14:31:26.692Z,6.47
2022-10-12T14:33:53.428Z,10.57
2022-10-12T14:36:20.002Z,24.73
2022-10-12T14:38:46.501Z,11.40
2022-10-12T14:41:13.029Z,12.73
2022-10-12T14:43:39.575Z,5.43
2022-10-12T14:46:06.097Z,13.23
2022-10-12T14:48:32.587Z,6.17
2022-10-12T14:50:59.141Z,12.20
2022-10-12T14:53:29.137Z,7.13
2022-10-12T14:55:55.723Z,31.23
2022-10-12T14:58:22.288Z,8.00
2022-10-12T15:00:49.100Z,13.70
2022-10-12T15:03:17.850Z,11.97
2022-10-12T15:05:44.377Z,4.93
2022-10-12T15:08:11.656Z,14.20
2022-10-12T15:10:39.487Z,10.87
2022-10-12T15:13:06.949Z,12.10
2022-10-12T15:15:34.150Z,8.13
2022-10-12T15:18:01.411Z,9.70
2022-10-12T15:20:28.737Z,8.20
2022-10-12T15:22:56.252Z,16.10
2022-10-12T15:25:24.057Z,8.17
2022-10-12T15:27:50.605Z,12.43
2022-10-12T15:30:17.172Z,9.87
2022-10-12T15:32:43.681Z,8.23
2022-10-12T15:35:10.201Z,11.20
2022-10-12T15:37:36.679Z,17.13
2022-10-12T15:40:03.165Z,5.73
2022-10-12T15:42:29.685Z,11.33
2022-10-12T15:44:56.172Z,11.80
2022-10-12T15:47:22.741Z,8.93
2022-10-12T15:49:49.226Z,15.07
2022-10-12T15:52:16.777Z,17.90
2022-10-12T15:54:46.812Z,11.30
2022-10-12T15:57:15.713Z,8.20
2022-10-12T15:59:42.543Z,11.03
2022-10-12T16:02:09.049Z,8.00
2022-10-12T16:04:35.523Z,12.83
2022-10-12T16:07:02.162Z,5.97
2022-10-12T16:09:28.679Z,19.57
2022-10-12T16:11:55.355Z,24.40
2022-10-12T16:14:23.288Z,10.33
2022-10-12T16:16:49.807Z,10.20
2022-10-12T16:19:16.367Z,7.17
2022-10-12T16:21:42.868Z,20.80
2022-10-12T16:24:09.430Z,8.77
2022-10-12T16:26:35.965Z,11.20
2022-10-12T16:29:02.459Z,8.43
2022-10-12T16:31:29.028Z,18.40
2022-10-12T16:33:55.524Z,16.60
2022-10-12T16:36:22.160Z,10.27
2022-10-12T16:38:48.660Z,7.67
2022-10-12T16:41:15.167Z,20.30
2022-10-12T16:43:41.667Z,12.40
2022-10-12T16:46:08.170Z,14.77
2022-10-12T16:48:34.832Z,13.37
2022-10-12T16:51:01.345Z,15.33
2022-10-12T16:53:27.840Z,11.53
2022-10-12T16:55:54.368Z,9.43
2022-10-12T16:58:20.950Z,11.30
2022-10-12T17:00:47.553Z,10.63
2022-10-12T17:03:14.290Z,10.77
2022-10-12T17:05:40.815Z,11.20
2022-10-12T17:08:10.136Z,11.57
2022-10-12T17:10:40.627Z,12.17
2022-10-12T17:13:07.216Z,8.13
2022-10-12T17:15:34.459Z,11.40
2022-10-12T17:18:02.095Z,24.63
2022-10-12T17:20:29.987Z,12.17
2022-10-12T17:22:57.263Z,8.30
2022-10-12T17:25:25.044Z,11.90
2022-10-12T17:27:52.183Z,6.33
2022-10-12T17:30:18.898Z,6.93
2022-10-12T17:32:45.417Z,15.53
2022-10-12T17:35:12.259Z,12.73
2022-10-12T17:37:38.790Z,12.70
2022-10-12T17:40:06.330Z,23.43
2022-10-12T17:42:32.832Z,9.10
2022-10-12T17:44:59.353Z,12.87
2022-10-12T17:47:25.859Z,12.60
2022-10-12T17:49:52.460Z,12.13
2022-10-12T17:52:19.417Z,15.10
2022-10-12T17:54:46.145Z,16.33
2022-10-12T17:57:12.698Z,25.70
2022-10-12T17:59:39.204Z,11.20
2022-10-12T18:02:09.324Z,13.60
2022-10-12T18:04:36.260Z,6.80
2022-10-12T18:07:03.045Z,20.73
2022-10-12T18:09:29.541Z,18.63
2022-10-12T18:11:56.204Z,26.83
2022-10-12T18:14:22.778Z,9.60
2022-10-12T18:16:49.272Z,20.03
2022-10-12T18:19:15.761Z,21.80
2022-10-12T18:21:42.324Z,17.30
2022-10-12T18:24:16.080Z,7.93
2022-10-12T18:26:43.119Z,16.80
2022-10-12T18:29:09.652Z,26.93
2022-10-12T18:31:36.144Z,22.53
2022-10-12T18:34:02.626Z,15.80
2022-10-12T18:36:29.174Z,23.03
2022-10-12T18:38:55.745Z,17.73
2022-10-12T18:41:22.425Z,19.50
2022-10-12T18:43:49.150Z,13.60
2022-10-12T18:46:16.877Z,13.50
2022-10-12T18:48:43.344Z,25.53
2022-10-12T18:51:10.351Z,21.13
2022-10-12T18:53:36.917Z,28.43
2022-10-12T18:56:03.612Z,41.60
2022-10-12T18:58:30.085Z,16.43
2022-10-12T19:00:56.609Z,17.27
2022-10-12T19:03:23.235Z,11.10
2022-10-12T19:05:49.883Z,16.73
2022-10-12T19:08:16.396Z,25.00
2022-10-12T19:10:42.894Z,24.73
2022-10-12T19:13:09.395Z,18.53
2022-10-12T19:15:36.018Z,14.17
2022-10-12T19:18:02.514Z,14.53
2022-10-12T19:20:29.094Z,17.77
2022-10-12T19:22:55.584Z,15.20
2022-10-12T19:25:22.111Z,17.10
2022-10-12T19:27:48.783Z,20.03
2022-10-12T19:30:15.445Z,18.70
2022-10-12T19:32:42.816Z,15.33
2022-10-12T19:35:09.346Z,15.10
2022-10-12T19:37:36.131Z,17.80
2022-10-12T19:40:07.400Z,16.20
2022-10-12T19:42:34.383Z,15.40
2022-10-12T19:45:02.821Z,23.87
2022-10-12T19:47:29.313Z,16.67
2022-10-12T19:49:55.969Z,26.03
2022-10-12T19:52:22.563Z,14.90
2022-10-12T19:54:49.077Z,16.03
2022-10-12T19:57:15.608Z,17.60
2022-10-12T19:59:42.086Z,18.70
2022-10-12T20:02:09.143Z,19.63
2022-10-12T20:04:35.767Z,16.80
2022-10-12T20:07:02.257Z,24.70
2022-10-12T20:09:30.565Z,19.27
2022-10-12T20:11:57.148Z,17.50
2022-10-12T20:14:23.613Z,15.40
2022-10-12T20:16:50.157Z,18.50
2022-10-12T20:19:16.682Z,25.63
2022-10-12T20:21:43.196Z,26.97
2022-10-12T20:24:09.857Z,26.50
2022-10-12T20:26:36.353Z,15.47
2022-10-12T20:29:02.950Z,26.67
2022-10-12T20:31:29.605Z,21.90
2022-10-12T20:33:57.691Z,18.20
2022-10-12T20:36:24.188Z,26.50
2022-10-12T20:38:50.664Z,33.50
2022-10-12T20:41:17.798Z,15.73
2022-10-12T20:43:44.375Z,16.13
2022-10-12T20:46:10.923Z,18.47
2022-10-12T20:48:39.608Z,25.17
2022-10-12T20:51:06.132Z,23.60
2022-10-12T20:53:33.981Z,21.70
2022-10-12T20:56:00.498Z,15.90
2022-10-12T20:58:27.989Z,19.20
2022-10-12T21:00:54.851Z,24.03
2022-10-12T21:03:21.408Z,20.37
2022-10-12T21:05:47.957Z,16.27
2022-10-12T21:08:14.431Z,18.07
2022-10-12T21:10:41.021Z,20.43
2022-10-12T21:13:07.513Z,20.87
2022-10-12T21:15:34.009Z,35.13
2022-10-12T21:18:00.520Z,26.60
2022-10-12T21:20:27.114Z,25.93
2022-10-12T21:22:53.613Z,25.30
2022-10-12T21:25:20.109Z,17.17
2022-10-12T21:27:46.658Z,20.57
2022-10-12T21:30:13.251Z,26.40
2022-10-12T21:32:39.729Z,32.20
2022-10-12T21:35:06.230Z,29.00
2022-10-12T21:37:32.745Z,19.20
2022-10-12T21:39:59.266Z,20.03
2022-10-12T21:42:25.861Z,23.83
2022-10-12T21:44:52.331Z,50.93
2022-10-12T21:47:18.850Z,23.97
2022-10-12T21:49:45.324Z,24.10
2022-10-12T21:52:11.839Z,18.03
2022-10-12T21:54:40.152Z,29.67
2022-10-12T21:57:06.669Z,28.30
2022-10-12T21:59:33.234Z,22.60
2022-10-12T22:01:59.735Z,23.00
2022-10-12T22:04:26.432Z,26.07
2022-10-12T22:06:56.039Z,29.73
2022-10-12T22:09:24.874Z,25.10
2022-10-12T22:11:51.379Z,31.67
2022-10-12T22:14:18.153Z,23.33
2022-10-12T22:16:44.733Z,33.50
2022-10-12T22:19:14.218Z,19.80
2022-10-12T22:21:40.739Z,17.07
2022-10-12T22:24:07.249Z,29.63
2022-10-12T22:26:35.071Z,25.83
2022-10-12T22:29:01.626Z,24.23
2022-10-12T22:31:28.126Z,28.03
2022-10-12T22:33:54.644Z,19.03
2022-10-12T22:36:21.142Z,21.27
2022-10-12T22:38:47.675Z,17.00
2022-10-12T22:41:14.198Z,21.43
2022-10-12T22:43:40.775Z,27.60
2022-10-12T22:46:07.296Z,25.63
2022-10-12T22:48:33.838Z,28.63
2022-10-12T22:51:00.333Z,21.17
2022-10-12T22:53:26.814Z,14.80
2022-10-12T22:55:53.347Z,20.17
2022-10-12T22:58:19.870Z,28.50
2022-10-12T23:00:46.376Z,30.30
2022-10-12T23:03:12.873Z,21.40
2022-10-12T23:05:39.353Z,22.00
2022-10-12T23:08:05.973Z,32.10
2022-10-12T23:10:32.466Z,19.67
2022-10-12T23:12:58.975Z,22.67
2022-10-12T23:15:25.520Z,26.90
2022-10-12T23:17:52.032Z,25.80
2022-10-12T23:20:18.817Z,27.60
2022-10-12T23:22:45.333Z,35.37
2022-10-12T23:25:11.812Z,22.03
2022-10-12T23:27:38.314Z,18.07
2022-10-12T23:30:05.150Z,35.17
2022-10-12T23:32:31.685Z,19.87
2022-10-12T23:34:58.216Z,17.27
2022-10-12T23:37:24.706Z,20.80
2022-10-12T23:39:51.327Z,20.67
2022-10-12T23:42:18.021Z,21.53
2022-10-12T23:44:44.720Z,24.43
2022-10-12T23:47:11.281Z,17.90
2022-10-12T23:49:37.812Z,20.30
2022-10-12T23:52:04.329Z,18.43
2022-10-12T23:54:30.793Z,18.93
2022-10-12T23:56:57.321Z,22.17
2022-10-12T23:59:23.793Z,22.43
